Detall de PIREP

Printer-friendly versionPDF version

[2011/04/29 08:28:00]
Flight IATA:CT1004
Pilot Number:011
Company ICAO:CAT
Aircraft Type:F28/A
PAX:85
Departing Airport: LPMA
Destination Airport: LEBL
Alternate Airport:LEPA
Online: VATSIM
Route:SNT UN745 MAGUM UN870 PONEN UW800 CASPE
Flight Level:F340
No Slew and time accel
No pause
Crash detect
Detect pilot in Cockpit between each 30 and 45 minutes
08:28 Zero fuel Weight: 56157 Lbs, Fuel Weight: 16686 Lbs
08:28 VATSIM:LPMA 290800Z 31005KT 260V030 9999 SCT013 17/12 Q1008 RS30005KT 0529003G16KT 2334009KT
08:28 VATSIM:LEBL 290800Z 05006KT 360V070 9999 FEW015 SCT040 15/12 Q1007 NOSIG
08:30 Parking Brakes off
08:40 Take-off
08:40 Take off Weight: 72419 Lbs
08:40 Wind: 358º @ 009 Knots Heading: 045º
08:40 POS N32º 42´ 02´´ W016º 46´ 16´´
08:40 Gear Up: 159 Knots
08:40 Flaps:3 at 159 Knots
08:41 Flaps:2 at 142 Knots
08:41 Flaps:1 at 142 Knots
08:41 Flaps:0 at 153 Knots
08:55 Wind:323º@035 Knots Heading: 039º Ground Speed: 325 Knots Altitude 28234 ft
09:01 TOC
09:01 Fuel Weight: 13833 Lb
10:10 Wind:081º@002 Knots Heading: 068º Ground Speed: 450 Knots Altitude 33697 ft
10:25 Wind:092º@014 Knots Heading: 067º Ground Speed: 441 Knots Altitude 33713 ft
10:40 Wind:107º@014 Knots Heading: 071º Ground Speed: 441 Knots Altitude 33740 ft
10:55 Wind:077º@018 Knots Heading: 077º Ground Speed: 434 Knots Altitude 33786 ft
10:58 TOD
10:58 Fuel Weight: 6192 Lb
11:20 Flaps:1 at 210 Knots
11:20 Flaps:2 at 188 Knots
11:20 Flaps:3 at 176 Knots
11:21 Gear Down: 170 Knots
11:21 Flaps:4 at 168 Knots
11:22 Flaps:5 at 160 Knots
11:28 TouchDown:Rate -216 ft/min Speed: 109 Knots
11:28 VATSIM:LEBL 291100Z 06010KT 8000 -RA FEW009 SCT015 16/14 Q1006 NOSIG
11:28 Land
11:28 Wind:064º@010 Knots
11:28 Heading: 065º
11:28 Flight Duration: 02:48
11:28 Landing Weight: 60884 Lbs
11:28 POS N41º 18´ 08´´ E002º 05´ 37´´
11:32 Parking brakes on
11:32 Block to Block Duration: 03:02
11:32 Final Fuel: 4545 Lbls
11:32 Spent Fuel: 12140 Lbls
11:32 Flight Length: 277 NM
11:32 TOD Land Length: 67 NM

Exportar CSV

Powered by Drupal - Modified by Danger4k